createdAt,value
2023-02-27T00:07:52.324Z,99070.46
2023-02-27T00:18:17.346Z,99078.49
2023-02-27T00:28:42.128Z,99089.03
2023-02-27T00:39:08.735Z,99093.30
2023-02-27T00:49:33.433Z,99086.11
2023-02-27T00:59:57.687Z,99077.60
2023-02-27T01:10:22.067Z,99084.06
2023-02-27T01:20:46.294Z,99094.13
2023-02-27T01:31:11.167Z,99099.97
2023-02-27T01:41:36.566Z,99111.73
2023-02-27T01:52:05.523Z,99129.25
2023-02-27T02:02:36.501Z,99135.42
2023-02-27T02:13:01.339Z,99144.08
2023-02-27T02:24:04.205Z,99148.05
2023-02-27T02:35:02.128Z,99159.82
2023-02-27T02:45:32.049Z,99169.58
2023-02-27T02:56:04.765Z,99163.05
2023-02-27T03:06:33.307Z,99167.17
2023-02-27T03:17:04.198Z,99162.23
2023-02-27T03:27:35.422Z,99164.73
2023-02-27T03:38:06.799Z,99178.20
2023-02-27T03:48:31.263Z,99178.27
2023-02-27T03:58:56.741Z,99192.99
2023-02-27T04:09:30.423Z,99202.64
2023-02-27T04:20:20.016Z,99212.74
2023-02-27T04:30:52.526Z,99222.02
2023-02-27T04:41:21.930Z,99226.84
2023-02-27T04:51:52.893Z,99232.32
2023-02-27T05:02:24.502Z,99244.30
2023-02-27T05:12:53.199Z,99246.73
2023-02-27T05:23:21.971Z,99258.18
2023-02-27T05:33:55.530Z,99262.84
2023-02-27T05:44:22.253Z,99269.48
2023-02-27T05:54:54.687Z,99277.52
2023-02-27T06:05:19.732Z,99294.33
2023-02-27T06:15:43.914Z,99302.12
2023-02-27T06:26:13.118Z,99313.58
2023-02-27T06:36:36.406Z,99312.10
2023-02-27T06:47:01.275Z,99323.48
2023-02-27T06:57:26.143Z,99319.81
2023-02-27T07:07:50.977Z,99339.23
2023-02-27T07:18:15.930Z,99340.89
2023-02-27T07:28:40.775Z,99349.58
2023-02-27T07:39:05.697Z,99350.40
2023-02-27T07:49:30.531Z,99357.11
2023-02-27T07:59:55.961Z,99362.41
2023-02-27T08:10:20.410Z,99372.86
2023-02-27T08:20:45.285Z,99390.42
2023-02-27T08:31:10.598Z,99400.20
2023-02-27T08:41:35.649Z,99413.84
2023-02-27T08:52:01.122Z,99415.14
2023-02-27T09:02:26.386Z,99418.88
2023-02-27T09:12:50.888Z,99424.14
2023-02-27T09:23:15.107Z,99435.93
2023-02-27T09:33:39.666Z,99442.52
2023-02-27T09:44:04.249Z,99447.23
2023-02-27T09:54:33.306Z,99450.23
2023-02-27T10:05:07.255Z,99449.84
2023-02-27T10:15:36.968Z,99458.60
2023-02-27T10:26:03.001Z,99475.10
2023-02-27T10:36:34.048Z,99471.85
2023-02-27T10:46:59.948Z,99462.16
2023-02-27T10:57:30.166Z,99457.48
2023-02-27T11:07:55.936Z,99451.14
2023-02-27T11:18:24.616Z,99445.98
2023-02-27T11:29:03.063Z,99456.91
2023-02-27T11:39:31.422Z,99456.92
2023-02-27T11:50:31.589Z,99450.69
2023-02-27T12:01:02.997Z,99444.28
2023-02-27T12:11:31.739Z,99465.04
2023-02-27T12:21:58.985Z,99469.86
2023-02-27T12:32:28.393Z,99469.10
2023-02-27T12:43:17.227Z,99471.58
2023-02-27T12:54:11.682Z,99469.34
2023-02-27T13:04:44.823Z,99475.39
2023-02-27T13:15:17.966Z,99482.15
2023-02-27T13:25:44.874Z,99497.01
2023-02-27T13:36:25.680Z,99494.95
2023-02-27T13:46:49.916Z,99492.45
2023-02-27T13:57:23.244Z,99483.80
2023-02-27T14:07:58.093Z,99499.17
2023-02-27T14:18:49.862Z,99507.46
2023-02-27T14:29:19.908Z,99513.20
2023-02-27T14:39:47.685Z,99523.23
2023-02-27T14:50:25.430Z,99524.63
2023-02-27T15:00:57.894Z,99536.13
2023-02-27T15:11:23.562Z,99546.62
2023-02-27T15:21:50.518Z,99550.76
2023-02-27T15:32:21.225Z,99560.52
2023-02-27T15:42:47.203Z,99567.06
2023-02-27T15:53:14.269Z,99581.91
2023-02-27T16:03:43.874Z,99586.98
2023-02-27T16:14:39.150Z,99599.84
2023-02-27T16:25:11.463Z,99608.78
2023-02-27T16:35:35.745Z,99618.63
2023-02-27T16:46:00.736Z,99628.80
2023-02-27T16:56:37.746Z,99633.38
2023-02-27T17:07:06.079Z,99649.36
2023-02-27T17:17:30.801Z,99658.83
2023-02-27T17:27:55.081Z,99667.16
2023-02-27T17:38:20.766Z,99674.94
2023-02-27T17:48:45.113Z,99679.90
2023-02-27T17:59:10.690Z,99685.55
2023-02-27T18:09:35.017Z,99701.61
2023-02-27T18:19:59.256Z,99713.08
2023-02-27T18:30:25.031Z,99716.33
2023-02-27T18:40:49.405Z,99720.82
2023-02-27T18:51:15.741Z,99733.10
2023-02-27T19:01:40.152Z,99741.75
2023-02-27T19:12:05.513Z,99752.51
2023-02-27T19:22:30.338Z,99760.95
2023-02-27T19:32:55.234Z,99771.52
2023-02-27T19:43:20.874Z,99780.73
2023-02-27T19:53:48.279Z,99786.80
2023-02-27T20:04:21.655Z,99794.50
2023-02-27T20:14:46.214Z,99794.83
2023-02-27T20:25:13.254Z,99804.08
2023-02-27T20:35:38.457Z,99813.69
2023-02-27T20:46:05.107Z,99812.75
2023-02-27T20:56:32.277Z,99815.77
2023-02-27T21:06:57.544Z,99823.10
2023-02-27T21:17:22.824Z,99815.14
2023-02-27T21:27:47.252Z,99814.05
2023-02-27T21:38:12.012Z,99813.52
2023-02-27T21:48:37.223Z,99821.35
2023-02-27T21:59:02.253Z,99825.36
2023-02-27T22:09:27.563Z,99829.29
2023-02-27T22:19:52.286Z,99831.38
2023-02-27T22:30:18.199Z,99831.48
2023-02-27T22:40:42.529Z,99828.79
2023-02-27T22:51:12.164Z,99830.76
2023-02-27T23:01:37.761Z,99834.34
2023-02-27T23:12:03.878Z,99838.90
2023-02-27T23:22:32.877Z,99841.94
2023-02-27T23:32:58.704Z,99844.59
2023-02-27T23:43:41.668Z,99846.74
2023-02-27T23:54:06.676Z,99842.02
